sensor_id;sensor_type;location;lat;lon;timestamp;P1;durP1;ratioP1;P2;durP2;ratioP2
18023;SDS011;9137;50.960;3.118;2023-06-10T00:02:10;6.88;;;6.35;;
18023;SDS011;9137;50.960;3.118;2023-06-10T00:04:37;7.95;;;6.47;;
18023;SDS011;9137;50.960;3.118;2023-06-10T00:07:05;8.00;;;7.20;;
18023;SDS011;9137;50.960;3.118;2023-06-10T00:09:33;7.18;;;6.57;;
18023;SDS011;9137;50.960;3.118;2023-06-10T00:12:01;7.55;;;6.95;;
18023;SDS011;9137;50.960;3.118;2023-06-10T00:14:28;7.40;;;6.70;;
18023;SDS011;9137;50.960;3.118;2023-06-10T00:16:57;7.72;;;7.13;;
18023;SDS011;9137;50.960;3.118;2023-06-10T00:19:24;7.30;;;6.70;;
18023;SDS011;9137;50.960;3.118;2023-06-10T00:21:53;7.35;;;6.65;;
18023;SDS011;9137;50.960;3.118;2023-06-10T00:24:20;7.63;;;7.00;;
18023;SDS011;9137;50.960;3.118;2023-06-10T00:26:47;8.80;;;7.43;;
18023;SDS011;9137;50.960;3.118;2023-06-10T00:29:14;7.88;;;7.20;;
18023;SDS011;9137;50.960;3.118;2023-06-10T00:31:41;8.48;;;7.57;;
18023;SDS011;9137;50.960;3.118;2023-06-10T00:34:13;7.65;;;7.07;;
18023;SDS011;9137;50.960;3.118;2023-06-10T00:36:40;8.95;;;8.25;;
18023;SDS011;9137;50.960;3.118;2023-06-10T00:39:08;8.05;;;7.25;;
18023;SDS011;9137;50.960;3.118;2023-06-10T00:41:35;8.48;;;7.57;;
18023;SDS011;9137;50.960;3.118;2023-06-10T00:44:02;7.43;;;6.82;;
18023;SDS011;9137;50.960;3.118;2023-06-10T00:46:29;8.25;;;7.38;;
18023;SDS011;9137;50.960;3.118;2023-06-10T00:48:58;8.53;;;7.83;;
18023;SDS011;9137;50.960;3.118;2023-06-10T00:51:27;8.38;;;7.57;;
18023;SDS011;9137;50.960;3.118;2023-06-10T00:53:54;8.80;;;8.00;;
18023;SDS011;9137;50.960;3.118;2023-06-10T00:56:22;7.25;;;6.65;;
18023;SDS011;9137;50.960;3.118;2023-06-10T00:58:50;9.07;;;8.30;;
18023;SDS011;9137;50.960;3.118;2023-06-10T01:01:17;8.25;;;7.55;;
18023;SDS011;9137;50.960;3.118;2023-06-10T01:03:45;9.00;;;7.97;;
18023;SDS011;9137;50.960;3.118;2023-06-10T01:06:14;9.65;;;8.32;;
18023;SDS011;9137;50.960;3.118;2023-06-10T01:08:53;9.75;;;8.18;;
18023;SDS011;9137;50.960;3.118;2023-06-10T01:11:28;9.10;;;8.30;;
18023;SDS011;9137;50.960;3.118;2023-06-10T01:14:00;9.30;;;8.40;;
18023;SDS011;9137;50.960;3.118;2023-06-10T01:16:28;9.32;;;8.48;;
18023;SDS011;9137;50.960;3.118;2023-06-10T01:18:55;9.32;;;8.52;;
18023;SDS011;9137;50.960;3.118;2023-06-10T01:21:24;9.73;;;8.85;;
18023;SDS011;9137;50.960;3.118;2023-06-10T01:23:52;9.98;;;9.05;;
18023;SDS011;9137;50.960;3.118;2023-06-10T01:26:21;9.87;;;8.97;;
18023;SDS011;9137;50.960;3.118;2023-06-10T01:28:53;9.18;;;8.38;;
18023;SDS011;9137;50.960;3.118;2023-06-10T01:31:28;9.05;;;8.32;;
18023;SDS011;9137;50.960;3.118;2023-06-10T01:34:00;9.68;;;8.95;;
18023;SDS011;9137;50.960;3.118;2023-06-10T01:36:29;9.48;;;8.65;;
18023;SDS011;9137;50.960;3.118;2023-06-10T01:38:59;9.40;;;8.65;;
18023;SDS011;9137;50.960;3.118;2023-06-10T01:41:28;8.43;;;7.72;;
18023;SDS011;9137;50.960;3.118;2023-06-10T01:43:55;9.30;;;8.45;;
18023;SDS011;9137;50.960;3.118;2023-06-10T01:46:22;9.13;;;8.38;;
18023;SDS011;9137;50.960;3.118;2023-06-10T01:48:51;8.73;;;8.02;;
18023;SDS011;9137;50.960;3.118;2023-06-10T01:51:18;9.10;;;8.35;;
18023;SDS011;9137;50.960;3.118;2023-06-10T01:53:46;8.75;;;8.15;;
18023;SDS011;9137;50.960;3.118;2023-06-10T01:56:13;9.75;;;8.95;;
18023;SDS011;9137;50.960;3.118;2023-06-10T01:58:44;9.23;;;8.32;;
18023;SDS011;9137;50.960;3.118;2023-06-10T02:01:11;9.02;;;8.25;;
18023;SDS011;9137;50.960;3.118;2023-06-10T02:03:38;8.95;;;8.35;;
18023;SDS011;9137;50.960;3.118;2023-06-10T02:06:05;9.30;;;8.40;;
18023;SDS011;9137;50.960;3.118;2023-06-10T02:08:32;10.10;;;9.30;;
18023;SDS011;9137;50.960;3.118;2023-06-10T02:11:00;9.50;;;8.70;;
18023;SDS011;9137;50.960;3.118;2023-06-10T02:13:27;9.70;;;8.90;;
18023;SDS011;9137;50.960;3.118;2023-06-10T02:15:54;9.38;;;8.60;;
18023;SDS011;9137;50.960;3.118;2023-06-10T02:18:21;9.20;;;8.30;;
18023;SDS011;9137;50.960;3.118;2023-06-10T02:20:48;9.07;;;8.27;;
18023;SDS011;9137;50.960;3.118;2023-06-10T02:23:15;9.10;;;8.30;;
18023;SDS011;9137;50.960;3.118;2023-06-10T02:25:42;9.60;;;8.70;;
18023;SDS011;9137;50.960;3.118;2023-06-10T02:28:10;9.07;;;8.38;;
18023;SDS011;9137;50.960;3.118;2023-06-10T02:30:38;9.33;;;8.63;;
18023;SDS011;9137;50.960;3.118;2023-06-10T02:33:06;9.38;;;8.48;;
18023;SDS011;9137;50.960;3.118;2023-06-10T02:35:35;9.73;;;8.87;;
18023;SDS011;9137;50.960;3.118;2023-06-10T02:38:02;9.40;;;8.55;;
18023;SDS011;9137;50.960;3.118;2023-06-10T02:40:29;10.20;;;9.27;;
18023;SDS011;9137;50.960;3.118;2023-06-10T02:42:57;9.57;;;8.80;;
18023;SDS011;9137;50.960;3.118;2023-06-10T02:45:25;10.25;;;9.35;;
18023;SDS011;9137;50.960;3.118;2023-06-10T02:47:52;9.57;;;8.68;;
18023;SDS011;9137;50.960;3.118;2023-06-10T02:50:19;9.87;;;8.97;;
18023;SDS011;9137;50.960;3.118;2023-06-10T02:52:46;9.82;;;8.98;;
18023;SDS011;9137;50.960;3.118;2023-06-10T02:55:15;9.90;;;9.10;;
18023;SDS011;9137;50.960;3.118;2023-06-10T02:57:41;9.27;;;8.68;;
18023;SDS011;9137;50.960;3.118;2023-06-10T03:00:09;10.05;;;9.15;;
18023;SDS011;9137;50.960;3.118;2023-06-10T03:02:38;9.40;;;8.57;;
18023;SDS011;9137;50.960;3.118;2023-06-10T03:05:07;10.25;;;9.45;;
18023;SDS011;9137;50.960;3.118;2023-06-10T03:07:35;10.15;;;9.35;;
18023;SDS011;9137;50.960;3.118;2023-06-10T03:10:05;9.40;;;8.50;;
18023;SDS011;9137;50.960;3.118;2023-06-10T03:12:34;11.18;;;9.50;;
18023;SDS011;9137;50.960;3.118;2023-06-10T03:15:01;9.53;;;8.63;;
18023;SDS011;9137;50.960;3.118;2023-06-10T03:17:30;10.15;;;9.25;;
18023;SDS011;9137;50.960;3.118;2023-06-10T03:19:59;9.35;;;8.45;;
18023;SDS011;9137;50.960;3.118;2023-06-10T03:22:26;9.82;;;9.02;;
18023;SDS011;9137;50.960;3.118;2023-06-10T03:24:53;9.80;;;9.07;;
18023;SDS011;9137;50.960;3.118;2023-06-10T03:27:22;10.07;;;9.18;;
18023;SDS011;9137;50.960;3.118;2023-06-10T03:29:51;10.02;;;9.23;;
18023;SDS011;9137;50.960;3.118;2023-06-10T03:32:20;9.93;;;9.13;;
18023;SDS011;9137;50.960;3.118;2023-06-10T03:34:47;9.70;;;8.90;;
18023;SDS011;9137;50.960;3.118;2023-06-10T03:37:15;9.80;;;9.00;;
18023;SDS011;9137;50.960;3.118;2023-06-10T03:39:42;10.18;;;9.40;;
18023;SDS011;9137;50.960;3.118;2023-06-10T03:42:09;10.50;;;9.65;;
18023;SDS011;9137;50.960;3.118;2023-06-10T03:44:36;10.20;;;9.30;;
18023;SDS011;9137;50.960;3.118;2023-06-10T03:47:03;10.23;;;9.43;;
18023;SDS011;9137;50.960;3.118;2023-06-10T03:49:33;10.10;;;9.30;;
18023;SDS011;9137;50.960;3.118;2023-06-10T03:52:03;10.00;;;9.10;;
18023;SDS011;9137;50.960;3.118;2023-06-10T03:54:35;10.35;;;9.50;;
18023;SDS011;9137;50.960;3.118;2023-06-10T03:57:04;10.48;;;9.68;;
18023;SDS011;9137;50.960;3.118;2023-06-10T03:59:32;10.20;;;9.30;;
18023;SDS011;9137;50.960;3.118;2023-06-10T04:01:59;10.30;;;9.40;;
18023;SDS011;9137;50.960;3.118;2023-06-10T04:04:26;10.57;;;9.68;;
18023;SDS011;9137;50.960;3.118;2023-06-10T04:06:53;11.13;;;10.25;;
18023;SDS011;9137;50.960;3.118;2023-06-10T04:09:20;11.03;;;10.13;;
18023;SDS011;9137;50.960;3.118;2023-06-10T04:11:48;11.85;;;10.85;;
18023;SDS011;9137;50.960;3.118;2023-06-10T04:14:15;11.88;;;10.95;;
18023;SDS011;9137;50.960;3.118;2023-06-10T04:16:42;12.65;;;11.38;;
18023;SDS011;9137;50.960;3.118;2023-06-10T04:19:09;12.38;;;11.25;;
18023;SDS011;9137;50.960;3.118;2023-06-10T04:21:36;11.38;;;10.43;;
18023;SDS011;9137;50.960;3.118;2023-06-10T04:24:03;12.50;;;11.27;;
18023;SDS011;9137;50.960;3.118;2023-06-10T04:26:30;12.27;;;11.13;;
18023;SDS011;9137;50.960;3.118;2023-06-10T04:29:00;12.23;;;11.23;;
18023;SDS011;9137;50.960;3.118;2023-06-10T04:31:27;12.30;;;11.30;;
18023;SDS011;9137;50.960;3.118;2023-06-10T04:33:54;11.93;;;10.75;;
18023;SDS011;9137;50.960;3.118;2023-06-10T04:36:20;11.57;;;10.68;;
18023;SDS011;9137;50.960;3.118;2023-06-10T04:38:48;12.10;;;11.02;;
18023;SDS011;9137;50.960;3.118;2023-06-10T04:41:17;11.20;;;10.20;;
18023;SDS011;9137;50.960;3.118;2023-06-10T04:43:44;11.77;;;10.77;;
18023;SDS011;9137;50.960;3.118;2023-06-10T04:46:12;12.27;;;11.17;;
18023;SDS011;9137;50.960;3.118;2023-06-10T04:48:39;11.57;;;10.57;;
18023;SDS011;9137;50.960;3.118;2023-06-10T04:51:07;11.95;;;10.80;;
18023;SDS011;9137;50.960;3.118;2023-06-10T04:53:34;11.65;;;10.65;;
18023;SDS011;9137;50.960;3.118;2023-06-10T04:56:01;11.40;;;10.40;;
18023;SDS011;9137;50.960;3.118;2023-06-10T04:58:28;11.18;;;10.27;;
18023;SDS011;9137;50.960;3.118;2023-06-10T05:00:55;11.23;;;10.43;;
18023;SDS011;9137;50.960;3.118;2023-06-10T05:03:24;11.55;;;10.55;;
18023;SDS011;9137;50.960;3.118;2023-06-10T05:05:51;10.90;;;10.10;;
18023;SDS011;9137;50.960;3.118;2023-06-10T05:08:18;11.82;;;10.82;;
18023;SDS011;9137;50.960;3.118;2023-06-10T05:10:45;12.03;;;10.83;;
18023;SDS011;9137;50.960;3.118;2023-06-10T05:13:11;11.30;;;10.38;;
18023;SDS011;9137;50.960;3.118;2023-06-10T05:15:38;11.45;;;10.55;;
18023;SDS011;9137;50.960;3.118;2023-06-10T05:18:09;11.60;;;10.63;;
18023;SDS011;9137;50.960;3.118;2023-06-10T05:20:38;11.57;;;10.50;;
18023;SDS011;9137;50.960;3.118;2023-06-10T05:23:05;11.90;;;10.70;;
18023;SDS011;9137;50.960;3.118;2023-06-10T05:25:32;12.00;;;11.00;;
18023;SDS011;9137;50.960;3.118;2023-06-10T05:28:00;11.68;;;10.73;;
18023;SDS011;9137;50.960;3.118;2023-06-10T05:30:27;11.63;;;10.52;;
18023;SDS011;9137;50.960;3.118;2023-06-10T05:32:53;11.35;;;10.45;;
18023;SDS011;9137;50.960;3.118;2023-06-10T05:35:21;12.13;;;11.15;;
18023;SDS011;9137;50.960;3.118;2023-06-10T05:37:49;11.77;;;10.98;;
18023;SDS011;9137;50.960;3.118;2023-06-10T05:40:16;11.80;;;10.73;;
18023;SDS011;9137;50.960;3.118;2023-06-10T05:42:43;12.68;;;11.40;;
18023;SDS011;9137;50.960;3.118;2023-06-10T05:45:10;11.67;;;10.57;;
18023;SDS011;9137;50.960;3.118;2023-06-10T05:47:37;11.40;;;10.55;;
18023;SDS011;9137;50.960;3.118;2023-06-10T05:50:05;12.68;;;11.55;;
18023;SDS011;9137;50.960;3.118;2023-06-10T05:52:33;11.68;;;10.77;;
18023;SDS011;9137;50.960;3.118;2023-06-10T05:55:02;11.75;;;10.85;;
18023;SDS011;9137;50.960;3.118;2023-06-10T05:57:29;11.90;;;10.80;;
18023;SDS011;9137;50.960;3.118;2023-06-10T05:59:56;12.35;;;11.10;;
18023;SDS011;9137;50.960;3.118;2023-06-10T06:02:23;10.95;;;9.93;;
18023;SDS011;9137;50.960;3.118;2023-06-10T06:04:50;11.48;;;10.38;;
18023;SDS011;9137;50.960;3.118;2023-06-10T06:07:17;11.30;;;10.30;;
18023;SDS011;9137;50.960;3.118;2023-06-10T06:09:45;10.85;;;9.82;;
18023;SDS011;9137;50.960;3.118;2023-06-10T06:12:14;10.90;;;9.90;;
18023;SDS011;9137;50.960;3.118;2023-06-10T06:14:41;11.40;;;10.30;;
18023;SDS011;9137;50.960;3.118;2023-06-10T06:17:08;11.10;;;10.10;;
18023;SDS011;9137;50.960;3.118;2023-06-10T06:19:35;11.23;;;10.43;;
18023;SDS011;9137;50.960;3.118;2023-06-10T06:22:01;10.43;;;9.50;;
18023;SDS011;9137;50.960;3.118;2023-06-10T06:24:28;9.85;;;9.00;;
18023;SDS011;9137;50.960;3.118;2023-06-10T06:26:56;11.10;;;10.18;;
18023;SDS011;9137;50.960;3.118;2023-06-10T06:29:24;9.50;;;8.65;;
18023;SDS011;9137;50.960;3.118;2023-06-10T06:31:51;10.10;;;9.18;;
18023;SDS011;9137;50.960;3.118;2023-06-10T06:34:18;9.90;;;9.10;;
18023;SDS011;9137;50.960;3.118;2023-06-10T06:36:45;10.43;;;9.30;;
18023;SDS011;9137;50.960;3.118;2023-06-10T06:39:12;10.05;;;9.02;;
18023;SDS011;9137;50.960;3.118;2023-06-10T06:41:39;10.10;;;9.13;;
18023;SDS011;9137;50.960;3.118;2023-06-10T06:44:05;9.55;;;8.82;;
18023;SDS011;9137;50.960;3.118;2023-06-10T06:46:34;9.73;;;8.73;;
18023;SDS011;9137;50.960;3.118;2023-06-10T06:49:01;9.40;;;8.55;;
18023;SDS011;9137;50.960;3.118;2023-06-10T06:51:27;10.05;;;9.20;;
18023;SDS011;9137;50.960;3.118;2023-06-10T06:53:54;9.77;;;8.80;;
18023;SDS011;9137;50.960;3.118;2023-06-10T06:56:23;9.57;;;8.82;;
18023;SDS011;9137;50.960;3.118;2023-06-10T06:58:52;9.13;;;8.43;;
18023;SDS011;9137;50.960;3.118;2023-06-10T07:01:19;9.52;;;8.63;;
18023;SDS011;9137;50.960;3.118;2023-06-10T07:03:47;9.68;;;8.75;;
18023;SDS011;9137;50.960;3.118;2023-06-10T07:06:14;9.02;;;8.23;;
18023;SDS011;9137;50.960;3.118;2023-06-10T07:08:41;8.63;;;7.93;;
18023;SDS011;9137;50.960;3.118;2023-06-10T07:11:08;7.88;;;7.20;;
18023;SDS011;9137;50.960;3.118;2023-06-10T07:13:35;8.55;;;7.82;;
18023;SDS011;9137;50.960;3.118;2023-06-10T07:16:02;8.93;;;8.20;;
18023;SDS011;9137;50.960;3.118;2023-06-10T07:18:29;9.60;;;8.70;;
18023;SDS011;9137;50.960;3.118;2023-06-10T07:20:57;9.88;;;8.88;;
18023;SDS011;9137;50.960;3.118;2023-06-10T07:23:24;9.25;;;8.35;;
18023;SDS011;9137;50.960;3.118;2023-06-10T07:25:51;8.97;;;8.17;;
18023;SDS011;9137;50.960;3.118;2023-06-10T07:28:18;8.43;;;7.70;;
18023;SDS011;9137;50.960;3.118;2023-06-10T07:30:45;8.85;;;7.95;;
18023;SDS011;9137;50.960;3.118;2023-06-10T07:33:12;9.68;;;8.88;;
18023;SDS011;9137;50.960;3.118;2023-06-10T07:35:39;9.02;;;8.20;;
18023;SDS011;9137;50.960;3.118;2023-06-10T07:38:09;9.85;;;8.18;;
18023;SDS011;9137;50.960;3.118;2023-06-10T07:40:36;9.45;;;8.65;;
18023;SDS011;9137;50.960;3.118;2023-06-10T07:43:03;8.70;;;7.90;;
18023;SDS011;9137;50.960;3.118;2023-06-10T07:45:30;9.43;;;8.52;;
18023;SDS011;9137;50.960;3.118;2023-06-10T07:47:57;9.23;;;8.40;;
18023;SDS011;9137;50.960;3.118;2023-06-10T07:50:24;8.85;;;8.15;;
18023;SDS011;9137;50.960;3.118;2023-06-10T07:52:50;9.60;;;8.25;;
18023;SDS011;9137;50.960;3.118;2023-06-10T07:55:19;9.18;;;8.30;;
18023;SDS011;9137;50.960;3.118;2023-06-10T07:57:46;8.75;;;8.05;;
18023;SDS011;9137;50.960;3.118;2023-06-10T08:00:13;8.02;;;7.43;;
18023;SDS011;9137;50.960;3.118;2023-06-10T08:02:40;9.27;;;8.33;;
18023;SDS011;9137;50.960;3.118;2023-06-10T08:05:07;9.07;;;8.38;;
18023;SDS011;9137;50.960;3.118;2023-06-10T08:07:35;8.75;;;8.00;;
18023;SDS011;9137;50.960;3.118;2023-06-10T08:10:02;9.35;;;8.48;;
18023;SDS011;9137;50.960;3.118;2023-06-10T08:12:31;9.20;;;8.13;;
18023;SDS011;9137;50.960;3.118;2023-06-10T08:14:58;8.60;;;7.82;;
18023;SDS011;9137;50.960;3.118;2023-06-10T08:17:25;7.95;;;7.28;;
18023;SDS011;9137;50.960;3.118;2023-06-10T08:19:52;8.15;;;7.55;;
18023;SDS011;9137;50.960;3.118;2023-06-10T08:22:19;8.13;;;7.30;;
18023;SDS011;9137;50.960;3.118;2023-06-10T08:24:46;8.83;;;8.07;;
18023;SDS011;9137;50.960;3.118;2023-06-10T08:27:13;9.02;;;8.10;;
18023;SDS011;9137;50.960;3.118;2023-06-10T08:29:41;8.88;;;7.72;;
18023;SDS011;9137;50.960;3.118;2023-06-10T08:32:08;9.00;;;7.65;;
18023;SDS011;9137;50.960;3.118;2023-06-10T08:34:35;8.03;;;7.43;;
18023;SDS011;9137;50.960;3.118;2023-06-10T08:37:03;8.95;;;8.15;;
18023;SDS011;9137;50.960;3.118;2023-06-10T08:39:30;7.65;;;6.95;;
18023;SDS011;9137;50.960;3.118;2023-06-10T08:42:00;8.25;;;7.55;;
18023;SDS011;9137;50.960;3.118;2023-06-10T08:44:33;8.38;;;7.72;;
18023;SDS011;9137;50.960;3.118;2023-06-10T08:47:06;7.82;;;7.13;;
18023;SDS011;9137;50.960;3.118;2023-06-10T08:49:38;7.93;;;7.22;;
18023;SDS011;9137;50.960;3.118;2023-06-10T08:52:07;8.15;;;7.50;;
18023;SDS011;9137;50.960;3.118;2023-06-10T08:54:40;8.30;;;7.33;;
18023;SDS011;9137;50.960;3.118;2023-06-10T08:57:13;7.65;;;6.97;;
18023;SDS011;9137;50.960;3.118;2023-06-10T08:59:40;7.75;;;7.10;;
18023;SDS011;9137;50.960;3.118;2023-06-10T09:02:09;7.88;;;7.20;;
18023;SDS011;9137;50.960;3.118;2023-06-10T09:04:36;8.30;;;6.97;;
18023;SDS011;9137;50.960;3.118;2023-06-10T09:07:04;8.10;;;7.30;;
18023;SDS011;9137;50.960;3.118;2023-06-10T09:09:32;7.68;;;6.97;;
18023;SDS011;9137;50.960;3.118;2023-06-10T09:12:01;7.93;;;7.22;;
18023;SDS011;9137;50.960;3.118;2023-06-10T09:14:28;7.95;;;7.35;;
18023;SDS011;9137;50.960;3.118;2023-06-10T09:16:55;7.53;;;6.70;;
18023;SDS011;9137;50.960;3.118;2023-06-10T09:19:24;8.57;;;6.77;;
18023;SDS011;9137;50.960;3.118;2023-06-10T09:21:53;7.68;;;7.03;;
18023;SDS011;9137;50.960;3.118;2023-06-10T09:24:20;7.15;;;6.55;;
18023;SDS011;9137;50.960;3.118;2023-06-10T09:26:50;7.57;;;6.90;;
18023;SDS011;9137;50.960;3.118;2023-06-10T09:29:27;7.33;;;6.63;;
18023;SDS011;9137;50.960;3.118;2023-06-10T09:31:54;7.00;;;6.40;;
18023;SDS011;9137;50.960;3.118;2023-06-10T09:34:24;6.68;;;6.05;;
18023;SDS011;9137;50.960;3.118;2023-06-10T09:36:53;6.88;;;6.38;;
18023;SDS011;9137;50.960;3.118;2023-06-10T09:39:20;7.30;;;6.65;;
18023;SDS011;9137;50.960;3.118;2023-06-10T09:41:47;7.90;;;7.20;;
18023;SDS011;9137;50.960;3.118;2023-06-10T09:44:15;6.70;;;6.30;;
18023;SDS011;9137;50.960;3.118;2023-06-10T09:46:44;7.28;;;6.68;;
18023;SDS011;9137;50.960;3.118;2023-06-10T09:49:12;6.93;;;6.25;;
18023;SDS011;9137;50.960;3.118;2023-06-10T09:51:49;8.23;;;7.35;;
18023;SDS011;9137;50.960;3.118;2023-06-10T09:54:17;7.72;;;7.00;;
18023;SDS011;9137;50.960;3.118;2023-06-10T09:56:46;6.97;;;6.40;;
18023;SDS011;9137;50.960;3.118;2023-06-10T09:59:13;6.85;;;6.25;;
18023;SDS011;9137;50.960;3.118;2023-06-10T10:01:41;7.20;;;6.55;;
18023;SDS011;9137;50.960;3.118;2023-06-10T10:04:08;7.45;;;6.72;;
18023;SDS011;9137;50.960;3.118;2023-06-10T10:06:35;6.28;;;5.78;;
18023;SDS011;9137;50.960;3.118;2023-06-10T10:09:04;6.93;;;6.23;;
18023;SDS011;9137;50.960;3.118;2023-06-10T10:11:32;6.40;;;5.80;;
18023;SDS011;9137;50.960;3.118;2023-06-10T10:14:00;7.32;;;6.63;;
18023;SDS011;9137;50.960;3.118;2023-06-10T10:16:33;6.80;;;6.28;;
18023;SDS011;9137;50.960;3.118;2023-06-10T10:19:06;7.20;;;6.47;;
18023;SDS011;9137;50.960;3.118;2023-06-10T10:21:39;7.00;;;5.78;;
18023;SDS011;9137;50.960;3.118;2023-06-10T10:24:16;6.50;;;5.90;;
18023;SDS011;9137;50.960;3.118;2023-06-10T10:26:46;7.00;;;6.22;;
18023;SDS011;9137;50.960;3.118;2023-06-10T10:29:14;7.25;;;5.55;;
18023;SDS011;9137;50.960;3.118;2023-06-10T10:31:46;6.45;;;5.80;;
18023;SDS011;9137;50.960;3.118;2023-06-10T10:34:19;6.10;;;5.60;;
18023;SDS011;9137;50.960;3.118;2023-06-10T10:36:56;6.07;;;5.67;;
18023;SDS011;9137;50.960;3.118;2023-06-10T10:39:25;6.63;;;6.03;;
18023;SDS011;9137;50.960;3.118;2023-06-10T10:41:53;5.95;;;5.45;;
18023;SDS011;9137;50.960;3.118;2023-06-10T10:44:21;5.75;;;5.30;;
18023;SDS011;9137;50.960;3.118;2023-06-10T10:46:50;5.93;;;5.50;;
18023;SDS011;9137;50.960;3.118;2023-06-10T10:49:19;5.55;;;5.10;;
18023;SDS011;9137;50.960;3.118;2023-06-10T10:51:55;5.23;;;4.80;;
18023;SDS011;9137;50.960;3.118;2023-06-10T10:54:29;5.60;;;5.20;;
18023;SDS011;9137;50.960;3.118;2023-06-10T10:57:09;5.38;;;4.88;;
18023;SDS011;9137;50.960;3.118;2023-06-10T10:59:51;5.22;;;4.72;;
18023;SDS011;9137;50.960;3.118;2023-06-10T11:02:31;5.65;;;5.15;;
18023;SDS011;9137;50.960;3.118;2023-06-10T11:05:04;5.43;;;5.00;;
18023;SDS011;9137;50.960;3.118;2023-06-10T11:07:33;5.38;;;4.97;;
18023;SDS011;9137;50.960;3.118;2023-06-10T11:10:03;5.10;;;4.70;;
18023;SDS011;9137;50.960;3.118;2023-06-10T11:12:50;4.77;;;4.10;;
18023;SDS011;9137;50.960;3.118;2023-06-10T11:15:19;5.22;;;4.82;;
18023;SDS011;9137;50.960;3.118;2023-06-10T11:20:43;5.55;;;5.03;;
18023;SDS011;9137;50.960;3.118;2023-06-10T11:23:24;5.07;;;4.68;;
18023;SDS011;9137;50.960;3.118;2023-06-10T11:25:53;5.20;;;4.70;;
18023;SDS011;9137;50.960;3.118;2023-06-10T11:29:03;5.68;;;5.18;;
18023;SDS011;9137;50.960;3.118;2023-06-10T11:31:46;5.80;;;5.00;;
18023;SDS011;9137;50.960;3.118;2023-06-10T11:34:21;6.00;;;5.05;;
18023;SDS011;9137;50.960;3.118;2023-06-10T11:36:49;6.22;;;4.97;;
18023;SDS011;9137;50.960;3.118;2023-06-10T11:39:20;5.30;;;4.90;;
18023;SDS011;9137;50.960;3.118;2023-06-10T11:41:51;6.65;;;4.82;;
18023;SDS011;9137;50.960;3.118;2023-06-10T11:44:18;5.25;;;4.78;;
18023;SDS011;9137;50.960;3.118;2023-06-10T11:46:45;5.65;;;5.15;;
18023;SDS011;9137;50.960;3.118;2023-06-10T11:49:14;5.85;;;5.28;;
18023;SDS011;9137;50.960;3.118;2023-06-10T11:51:41;5.27;;;4.77;;
18023;SDS011;9137;50.960;3.118;2023-06-10T11:54:14;5.00;;;4.53;;
18023;SDS011;9137;50.960;3.118;2023-06-10T11:56:42;5.10;;;4.60;;
18023;SDS011;9137;50.960;3.118;2023-06-10T11:59:10;4.95;;;4.55;;
18023;SDS011;9137;50.960;3.118;2023-06-10T12:01:39;5.37;;;4.87;;
18023;SDS011;9137;50.960;3.118;2023-06-10T12:04:09;4.85;;;4.45;;
18023;SDS011;9137;50.960;3.118;2023-06-10T12:06:38;5.00;;;4.60;;
18023;SDS011;9137;50.960;3.118;2023-06-10T12:09:06;5.88;;;4.97;;
18023;SDS011;9137;50.960;3.118;2023-06-10T12:11:33;7.23;;;4.77;;
18023;SDS011;9137;50.960;3.118;2023-06-10T12:14:01;5.10;;;4.70;;
18023;SDS011;9137;50.960;3.118;2023-06-10T12:16:30;5.93;;;4.93;;
18023;SDS011;9137;50.960;3.118;2023-06-10T12:19:01;5.68;;;5.07;;
18023;SDS011;9137;50.960;3.118;2023-06-10T12:21:29;5.40;;;4.85;;
18023;SDS011;9137;50.960;3.118;2023-06-10T12:24:00;6.63;;;4.90;;
18023;SDS011;9137;50.960;3.118;2023-06-10T12:26:41;7.40;;;5.18;;
18023;SDS011;9137;50.960;3.118;2023-06-10T12:29:19;5.35;;;4.90;;
18023;SDS011;9137;50.960;3.118;2023-06-10T12:31:56;6.72;;;5.07;;
18023;SDS011;9137;50.960;3.118;2023-06-10T12:34:28;5.13;;;4.63;;
18023;SDS011;9137;50.960;3.118;2023-06-10T12:36:59;4.85;;;4.45;;
18023;SDS011;9137;50.960;3.118;2023-06-10T12:39:29;5.75;;;4.60;;
18023;SDS011;9137;50.960;3.118;2023-06-10T12:41:56;7.22;;;4.78;;
18023;SDS011;9137;50.960;3.118;2023-06-10T12:44:30;5.43;;;4.95;;
18023;SDS011;9137;50.960;3.118;2023-06-10T12:46:59;5.27;;;4.77;;
18023;SDS011;9137;50.960;3.118;2023-06-10T12:49:26;5.13;;;4.68;;
18023;SDS011;9137;50.960;3.118;2023-06-10T12:51:53;5.30;;;4.80;;
18023;SDS011;9137;50.960;3.118;2023-06-10T12:54:21;5.38;;;4.88;;
18023;SDS011;9137;50.960;3.118;2023-06-10T12:56:48;5.55;;;4.95;;
18023;SDS011;9137;50.960;3.118;2023-06-10T12:59:15;5.43;;;4.75;;
18023;SDS011;9137;50.960;3.118;2023-06-10T13:01:42;4.97;;;4.40;;
18023;SDS011;9137;50.960;3.118;2023-06-10T13:04:11;5.13;;;4.72;;
18023;SDS011;9137;50.960;3.118;2023-06-10T13:06:38;5.25;;;4.78;;
18023;SDS011;9137;50.960;3.118;2023-06-10T13:09:05;5.32;;;4.82;;
18023;SDS011;9137;50.960;3.118;2023-06-10T13:11:33;5.57;;;5.00;;
18023;SDS011;9137;50.960;3.118;2023-06-10T13:14:00;5.57;;;5.18;;
18023;SDS011;9137;50.960;3.118;2023-06-10T13:16:29;5.10;;;4.70;;
18023;SDS011;9137;50.960;3.118;2023-06-10T13:18:57;5.37;;;4.97;;
18023;SDS011;9137;50.960;3.118;2023-06-10T13:21:27;5.18;;;4.68;;
18023;SDS011;9137;50.960;3.118;2023-06-10T13:23:54;5.13;;;4.73;;
18023;SDS011;9137;50.960;3.118;2023-06-10T13:26:21;5.22;;;4.68;;
18023;SDS011;9137;50.960;3.118;2023-06-10T13:28:48;5.72;;;5.10;;
18023;SDS011;9137;50.960;3.118;2023-06-10T13:31:16;5.40;;;4.90;;
18023;SDS011;9137;50.960;3.118;2023-06-10T13:33:44;5.30;;;4.90;;
18023;SDS011;9137;50.960;3.118;2023-06-10T13:36:12;5.47;;;4.93;;
18023;SDS011;9137;50.960;3.118;2023-06-10T13:38:40;5.80;;;5.07;;
18023;SDS011;9137;50.960;3.118;2023-06-10T13:41:07;6.80;;;5.28;;
18023;SDS011;9137;50.960;3.118;2023-06-10T13:43:35;12.90;;;5.88;;
18023;SDS011;9137;50.960;3.118;2023-06-10T13:46:03;5.70;;;5.20;;
18023;SDS011;9137;50.960;3.118;2023-06-10T13:48:30;5.10;;;4.70;;
18023;SDS011;9137;50.960;3.118;2023-06-10T13:50:57;5.40;;;5.00;;
18023;SDS011;9137;50.960;3.118;2023-06-10T13:53:25;5.77;;;5.20;;
18023;SDS011;9137;50.960;3.118;2023-06-10T13:55:53;6.18;;;5.63;;
18023;SDS011;9137;50.960;3.118;2023-06-10T13:58:20;5.30;;;5.00;;
18023;SDS011;9137;50.960;3.118;2023-06-10T14:00:47;5.80;;;5.30;;
18023;SDS011;9137;50.960;3.118;2023-06-10T14:03:14;5.35;;;4.93;;
18023;SDS011;9137;50.960;3.118;2023-06-10T14:05:41;5.63;;;5.13;;
18023;SDS011;9137;50.960;3.118;2023-06-10T14:08:08;5.40;;;4.90;;
18023;SDS011;9137;50.960;3.118;2023-06-10T14:10:35;5.35;;;4.95;;
18023;SDS011;9137;50.960;3.118;2023-06-10T14:13:03;5.07;;;4.78;;
18023;SDS011;9137;50.960;3.118;2023-06-10T14:15:30;6.00;;;5.50;;
18023;SDS011;9137;50.960;3.118;2023-06-10T14:17:57;5.72;;;5.22;;
18023;SDS011;9137;50.960;3.118;2023-06-10T14:20:24;5.03;;;4.63;;
18023;SDS011;9137;50.960;3.118;2023-06-10T14:22:52;4.93;;;4.60;;
18023;SDS011;9137;50.960;3.118;2023-06-10T14:25:18;5.25;;;4.80;;
18023;SDS011;9137;50.960;3.118;2023-06-10T14:27:45;5.32;;;4.93;;
18023;SDS011;9137;50.960;3.118;2023-06-10T14:30:15;5.28;;;4.88;;
18023;SDS011;9137;50.960;3.118;2023-06-10T14:32:42;4.90;;;4.60;;
18023;SDS011;9137;50.960;3.118;2023-06-10T14:35:11;5.05;;;4.53;;
18023;SDS011;9137;50.960;3.118;2023-06-10T14:37:38;4.55;;;4.15;;
18023;SDS011;9137;50.960;3.118;2023-06-10T14:40:05;5.05;;;4.68;;
18023;SDS011;9137;50.960;3.118;2023-06-10T14:42:33;5.20;;;4.67;;
18023;SDS011;9137;50.960;3.118;2023-06-10T14:45:01;5.45;;;5.05;;
18023;SDS011;9137;50.960;3.118;2023-06-10T14:47:29;5.30;;;4.90;;
18023;SDS011;9137;50.960;3.118;2023-06-10T14:49:56;5.20;;;4.80;;
18023;SDS011;9137;50.960;3.118;2023-06-10T14:52:23;4.75;;;4.35;;
18023;SDS011;9137;50.960;3.118;2023-06-10T14:54:50;5.15;;;4.75;;
18023;SDS011;9137;50.960;3.118;2023-06-10T14:57:17;5.53;;;5.10;;
18023;SDS011;9137;50.960;3.118;2023-06-10T14:59:44;5.50;;;5.00;;
18023;SDS011;9137;50.960;3.118;2023-06-10T15:02:11;6.25;;;5.18;;
18023;SDS011;9137;50.960;3.118;2023-06-10T15:04:39;4.90;;;4.57;;
18023;SDS011;9137;50.960;3.118;2023-06-10T15:07:06;5.47;;;4.97;;